Terminal Aerodrome Forecast
Issued by NWS

Home | Current Version | Previous Version | Text Only | Print | Product List | Glossary On
Versions: 1 2 3 4 5 6 7 8 9 10 11 12 13 14 15 16 17 18 19 20 21 22 23 24 25 26 27 28 29 30 31 32 33 34 35 36 37 38 39 40 41 42 43 44 45 46 47 48 49 50
000
FTUS43 KMKX 170949 AAC
TAFENW
TAF AMD
KENW 170949Z 1710/1806 04005KT 2SM -RA BR OVC003
      TEMPO 1710/1713 3/4SM BR
     FM171500 33007KT 1/2SM FG VCSH OVC003
     FM171800 32006KT 1SM BR VCSH OVC003
     FM180000 30006KT 1SM BR OVC003=

USA.gov is the U.S. government's official web portal to all federal, state and local government web resources and services.